Time;durP1;ratioP1;P1;durP2;ratioP2;P2;SDS_P1;SDS_P2;PMS_P1;PMS_P2;Temp;Humidity;BMP_temperature;BMP_pressure;BME280_temperature;BME280_humidity;BME280_pressure;Samples;Min_cycle;Max_cycle;Signal;HPM_P1;HPM_P2
2022/12/03 00:01:48;;;;;;;33.53;14.10;;;3.10;99.90;;;;;;5036509;28;20041;-72
2022/12/03 00:04:13;;;;;;;35.63;14.45;;;3.10;99.90;;;;;;5038906;28;20036;-72
2022/12/03 00:06:39;;;;;;;37.10;14.98;;;3.20;99.90;;;;;;5032818;28;20521;-72
2022/12/03 00:09:04;;;;;;;33.75;14.25;;;3.20;99.90;;;;;;5054429;28;20044;-69
2022/12/03 00:11:30;;;;;;;34.17;14.27;;;3.20;99.90;;;;;;5036543;28;20114;-70
2022/12/03 00:13:56;;;;;;;31.55;13.75;;;3.20;99.90;;;;;;5042102;28;20071;-69
2022/12/03 00:16:21;;;;;;;36.25;14.07;;;3.10;99.90;;;;;;5036311;28;20045;-70
2022/12/03 00:18:47;;;;;;;38.33;15.98;;;3.10;99.90;;;;;;5036449;28;20041;-69
2022/12/03 00:21:12;;;;;;;35.13;14.63;;;3.10;99.90;;;;;;5018059;28;20053;-72
2022/12/03 00:23:38;;;;;;;38.10;15.15;;;3.10;99.90;;;;;;5030476;28;20041;-70
2022/12/03 00:26:04;;;;;;;33.60;14.52;;;3.10;99.90;;;;;;5036207;28;20128;-71
2022/12/03 00:28:29;;;;;;;39.38;14.80;;;3.10;99.90;;;;;;5052145;28;20040;-71
2022/12/03 00:30:55;;;;;;;36.72;15.57;;;3.10;99.90;;;;;;5028081;28;20981;-72
2022/12/03 00:33:21;;;;;;;40.70;15.05;;;3.10;99.90;;;;;;5053893;28;20396;-72
2022/12/03 00:35:47;;;;;;;36.25;15.15;;;3.10;99.90;;;;;;5033271;28;20689;-69
2022/12/03 00:38:12;;;;;;;36.35;14.73;;;3.10;99.90;;;;;;5025135;28;20041;-70
2022/12/03 00:40:38;;;;;;;36.50;15.85;;;3.10;99.90;;;;;;5019262;28;20115;-69
2022/12/03 00:43:04;;;;;;;35.67;15.13;;;3.10;99.90;;;;;;5053378;28;20041;-72
2022/12/03 00:45:30;;;;;;;36.58;15.45;;;3.10;99.90;;;;;;5041675;28;20067;-70
2022/12/03 00:47:55;;;;;;;39.28;15.27;;;3.10;99.90;;;;;;5033565;28;20033;-71
2022/12/03 00:50:21;;;;;;;39.55;14.88;;;3.20;99.90;;;;;;5036117;28;20037;-71
2022/12/03 00:52:48;;;;;;;42.70;15.57;;;3.20;99.90;;;;;;5039858;28;21045;-70
2022/12/03 00:55:14;;;;;;;37.65;14.73;;;3.20;99.90;;;;;;5026150;28;20056;-71
2022/12/03 00:57:40;;;;;;;39.83;15.80;;;3.30;99.90;;;;;;5035541;28;20509;-70
2022/12/03 01:00:07;;;;;;;37.70;15.55;;;3.30;99.90;;;;;;5033047;28;20098;-69
2022/12/03 01:02:33;;;;;;;38.90;14.25;;;3.30;99.90;;;;;;5014433;28;20120;-70
2022/12/03 01:04:58;;;;;;;37.10;15.45;;;3.30;99.90;;;;;;5031560;28;20144;-70
2022/12/03 01:07:24;;;;;;;38.75;16.20;;;3.40;99.90;;;;;;5019010;28;20051;-71
2022/12/03 01:09:50;;;;;;;39.10;15.23;;;3.40;99.90;;;;;;5028448;28;20045;-70
2022/12/03 01:12:15;;;;;;;37.50;15.05;;;3.40;99.90;;;;;;5020300;28;20546;-73
2022/12/03 01:14:41;;;;;;;35.13;14.82;;;3.40;99.90;;;;;;5053154;28;20395;-73
2022/12/03 01:17:06;;;;;;;36.92;15.05;;;3.40;99.90;;;;;;5035505;28;20040;-70
2022/12/03 01:19:34;;;;;;;37.80;15.15;;;3.40;99.90;;;;;;5027997;28;20055;-70
2022/12/03 01:22:00;;;;;;;36.88;14.90;;;3.40;99.90;;;;;;5034754;28;20037;-72
2022/12/03 01:24:26;;;;;;;36.78;15.80;;;3.40;99.90;;;;;;5044821;22;20048;-70
2022/12/03 01:26:52;;;;;;;35.88;14.60;;;3.50;99.90;;;;;;5030680;28;20057;-72
2022/12/03 01:29:18;;;;;;;38.22;15.90;;;3.50;99.90;;;;;;5031237;28;20037;-70
2022/12/03 01:34:27;;;;;;;38.22;15.10;;;3.50;99.90;;;;;;5030569;28;20154;-70
2022/12/03 01:36:53;;;;;;;38.05;15.50;;;3.60;99.90;;;;;;5032251;28;20084;-70
2022/12/03 01:39:19;;;;;;;35.42;14.25;;;3.60;99.90;;;;;;5044318;28;20033;-70
2022/12/03 01:41:46;;;;;;;39.60;15.95;;;3.60;99.90;;;;;;5033894;28;20040;-70
2022/12/03 01:44:23;;;;;;;43.13;16.33;;;3.70;99.90;;;;;;5028178;28;20116;-70
2022/12/03 01:46:50;;;;;;;38.28;16.38;;;3.70;99.90;;;;;;5031219;28;20045;-71
2022/12/03 01:49:20;;;;;;;35.80;16.17;;;3.70;99.90;;;;;;5032647;28;20458;-70
2022/12/03 01:51:47;;;;;;;33.80;15.13;;;3.70;99.90;;;;;;5016386;28;20563;-70
2022/12/03 01:54:21;;;;;;;39.95;16.35;;;3.70;99.90;;;;;;5036309;28;20096;-71
2022/12/03 01:56:47;;;;;;;38.53;16.17;;;3.70;99.90;;;;;;5032421;28;20049;-71
2022/12/03 01:59:18;;;;;;;37.90;15.77;;;3.70;99.90;;;;;;5030472;28;20069;-71
2022/12/03 02:01:44;;;;;;;36.47;16.15;;;3.80;99.90;;;;;;5030555;28;20049;-73
2022/12/03 02:04:15;;;;;;;40.13;15.88;;;3.80;99.90;;;;;;5028271;28;20480;-72
2022/12/03 02:06:42;;;;;;;40.70;17.15;;;3.80;99.90;;;;;;5032130;28;20068;-72
2022/12/03 02:09:12;;;;;;;36.33;16.60;;;3.80;99.90;;;;;;5031058;28;20124;-72
2022/12/03 02:11:45;;;;;;;34.28;15.57;;;3.80;99.90;;;;;;5030966;28;20045;-72
2022/12/03 02:14:15;;;;;;;39.42;17.60;;;3.80;99.90;;;;;;5039631;28;20128;-72
2022/12/03 02:16:41;;;;;;;38.03;16.05;;;3.80;99.90;;;;;;5033253;28;20499;-70
2022/12/03 02:19:21;;;;;;;41.08;17.20;;;3.70;99.90;;;;;;5032559;28;20132;-73
2022/12/03 02:21:59;;;;;;;39.10;15.68;;;3.80;99.90;;;;;;5030664;28;20049;-71
2022/12/03 02:24:34;;;;;;;40.83;17.55;;;3.70;99.90;;;;;;5030896;28;20041;-71
2022/12/03 02:26:59;;;;;;;39.17;17.08;;;3.70;99.90;;;;;;5037194;28;20044;-70
2022/12/03 02:29:25;;;;;;;33.45;14.63;;;3.70;99.90;;;;;;5034536;28;20442;-69
2022/12/03 02:31:51;;;;;;;39.30;17.00;;;3.70;99.90;;;;;;5030003;28;20045;-70
2022/12/03 02:34:34;;;;;;;38.60;16.02;;;3.70;99.90;;;;;;5011663;28;20038;-72
2022/12/03 02:37:00;;;;;;;36.15;16.27;;;3.70;99.90;;;;;;5030393;28;20045;-72
2022/12/03 02:39:26;;;;;;;36.60;16.73;;;3.70;99.90;;;;;;5031953;28;20462;-72
2022/12/03 02:44:36;;;;;;;35.53;16.63;;;3.70;99.90;;;;;;5034294;28;20718;-73
2022/12/03 02:47:02;;;;;;;35.63;16.13;;;3.70;99.90;;;;;;5032354;28;20049;-71
2022/12/03 02:49:28;;;;;;;30.20;14.02;;;3.70;99.90;;;;;;5029397;28;20080;-71
2022/12/03 02:51:53;;;;;;;33.97;16.42;;;3.70;99.90;;;;;;5037396;28;20040;-70
2022/12/03 02:54:19;;;;;;;34.65;15.48;;;3.70;99.90;;;;;;5029966;28;20112;-70
2022/12/03 02:56:45;;;;;;;32.28;16.58;;;3.70;99.90;;;;;;5030273;28;20037;-72
2022/12/03 02:59:11;;;;;;;33.90;16.42;;;3.70;99.90;;;;;;5029953;28;20114;-72
2022/12/03 03:01:36;;;;;;;36.03;16.02;;;3.70;99.90;;;;;;5047533;28;20045;-72
2022/12/03 03:04:03;;;;;;;32.83;16.05;;;3.70;99.90;;;;;;5051127;28;20036;-72
2022/12/03 03:06:29;;;;;;;32.35;14.80;;;3.70;99.90;;;;;;5047355;28;20077;-72
2022/12/03 03:08:55;;;;;;;33.90;15.75;;;3.60;99.90;;;;;;5030821;28;20637;-72
2022/12/03 03:11:21;;;;;;;36.28;15.57;;;3.60;99.90;;;;;;5050092;28;20109;-71
2022/12/03 03:13:47;;;;;;;34.47;15.93;;;3.60;99.90;;;;;;5050074;28;20433;-73
2022/12/03 03:16:12;;;;;;;31.13;15.30;;;3.60;99.90;;;;;;5044212;28;20029;-72
2022/12/03 03:18:38;;;;;;;32.30;14.55;;;3.60;99.90;;;;;;5038379;28;20083;-72
2022/12/03 03:21:05;;;;;;;32.22;15.35;;;3.50;99.90;;;;;;5030874;28;20041;-72
2022/12/03 03:23:30;;;;;;;31.83;13.77;;;3.50;99.90;;;;;;5029284;28;20073;-70
2022/12/03 03:26:05;;;;;;;36.55;15.27;;;3.50;99.90;;;;;;5032718;28;20072;-70
2022/12/03 03:28:33;;;;;;;36.53;15.35;;;3.50;99.90;;;;;;5041159;28;20029;-72
2022/12/03 03:31:02;;;;;;;31.85;14.68;;;3.50;99.90;;;;;;5053435;28;20037;-73
2022/12/03 03:33:28;;;;;;;30.80;14.65;;;3.50;99.90;;;;;;5032197;28;20049;-70
2022/12/03 03:35:54;;;;;;;33.13;15.38;;;3.50;99.90;;;;;;5034476;28;20115;-70
2022/12/03 03:38:22;;;;;;;31.80;14.38;;;3.50;99.90;;;;;;5033937;28;20352;-70
2022/12/03 03:40:50;;;;;;;34.38;14.77;;;3.40;99.90;;;;;;5033144;28;20052;-72
2022/12/03 03:43:16;;;;;;;32.95;14.82;;;3.50;99.90;;;;;;5023108;28;20067;-71
2022/12/03 03:45:56;;;;;;;33.88;14.77;;;3.40;99.90;;;;;;5007456;28;20522;-71
2022/12/03 03:48:22;;;;;;;33.33;14.50;;;3.40;99.90;;;;;;5046557;28;20061;-71
2022/12/03 03:50:50;;;;;;;31.73;14.98;;;3.50;99.90;;;;;;5032955;28;20129;-72
2022/12/03 03:53:16;;;;;;;38.92;16.20;;;3.40;99.90;;;;;;5033288;28;20045;-70
2022/12/03 03:55:42;;;;;;;35.25;16.38;;;3.40;99.90;;;;;;5031764;28;20042;-72
2022/12/03 03:58:08;;;;;;;36.22;17.60;;;3.40;99.90;;;;;;5040975;28;20155;-73
2022/12/03 04:00:35;;;;;;;37.05;16.35;;;3.40;99.90;;;;;;5034335;28;20523;-72
2022/12/03 04:03:02;;;;;;;32.95;15.02;;;3.40;99.90;;;;;;5033183;28;20045;-72
2022/12/03 04:05:28;;;;;;;34.33;16.65;;;3.50;99.90;;;;;;5033465;28;20037;-70
2022/12/03 04:07:54;;;;;;;37.47;16.35;;;3.50;99.90;;;;;;5034207;28;20064;-69
2022/12/03 04:13:04;;;;;;;37.13;17.25;;;3.50;99.90;;;;;;5030657;28;20049;-70
2022/12/03 04:15:30;;;;;;;33.78;15.13;;;3.50;99.90;;;;;;5033846;28;20044;-72
2022/12/03 04:20:40;;;;;;;33.08;15.43;;;3.40;99.90;;;;;;5033273;28;20076;-72
2022/12/03 04:23:07;;;;;;;33.63;15.43;;;3.50;99.90;;;;;;5030129;28;20488;-72
2022/12/03 04:35:41;;;;;;;35.45;15.88;;;3.40;99.90;;;;;;5036497;28;20048;-71
2022/12/03 04:36:30;;;;;;;36.80;16.25;;;3.40;99.90;;;;;;5049071;28;20095;-72
2022/12/03 04:38:55;;;;;;;33.47;14.85;;;3.40;99.90;;;;;;5038663;28;20072;-73
2022/12/03 04:41:21;;;;;;;37.80;17.25;;;3.40;99.90;;;;;;5035739;28;20034;-70
2022/12/03 04:46:30;;;;;;;37.25;16.10;;;3.40;99.90;;;;;;5028693;28;20411;-71
2022/12/03 04:48:56;;;;;;;39.95;17.05;;;3.40;99.90;;;;;;5033965;28;20041;-70
2022/12/03 04:51:21;;;;;;;34.63;16.95;;;3.30;99.90;;;;;;5033214;28;20045;-73
2022/12/03 04:53:47;;;;;;;37.85;16.02;;;3.30;99.90;;;;;;5033124;28;20033;-73
2022/12/03 04:56:13;;;;;;;38.13;15.32;;;3.30;99.90;;;;;;5032165;28;20037;-72
2022/12/03 04:58:38;;;;;;;35.88;15.85;;;3.30;99.90;;;;;;5030865;28;20030;-72
2022/12/03 05:01:04;;;;;;;43.05;16.77;;;3.30;99.90;;;;;;5038546;28;20088;-72
2022/12/03 05:03:30;;;;;;;37.75;15.68;;;3.30;99.90;;;;;;5030587;28;20045;-73
2022/12/03 05:05:55;;;;;;;35.20;16.35;;;3.30;99.90;;;;;;5031758;28;20052;-73
2022/12/03 05:08:21;;;;;;;35.88;15.45;;;3.30;99.90;;;;;;5032104;28;20037;-72
2022/12/03 05:10:46;;;;;;;36.33;16.20;;;3.30;99.90;;;;;;5033346;28;20048;-72
2022/12/03 05:13:12;;;;;;;33.53;16.77;;;3.30;99.90;;;;;;5029172;28;20054;-70
2022/12/03 05:15:37;;;;;;;36.60;15.48;;;3.30;99.90;;;;;;5037760;28;20045;-70
2022/12/03 05:18:03;;;;;;;42.22;17.23;;;3.30;99.90;;;;;;5031699;28;20042;-70
2022/12/03 05:20:41;;;;;;;38.15;16.75;;;3.30;99.90;;;;;;5030107;28;20091;-70
2022/12/03 05:23:11;;;;;;;39.08;16.73;;;3.30;99.90;;;;;;5031259;28;20041;-70
2022/12/03 05:25:36;;;;;;;36.42;16.48;;;3.30;99.90;;;;;;5031835;28;20128;-70
2022/12/03 05:28:03;;;;;;;39.33;17.13;;;3.30;99.90;;;;;;5032266;28;20141;-71
2022/12/03 05:30:29;;;;;;;38.92;17.42;;;3.30;99.90;;;;;;5029848;28;20068;-73
2022/12/03 05:32:54;;;;;;;39.72;16.52;;;3.30;99.90;;;;;;5031240;28;20512;-72
2022/12/03 05:35:20;;;;;;;37.47;16.60;;;3.30;99.90;;;;;;5031881;28;20498;-70
2022/12/03 05:37:45;;;;;;;37.00;16.85;;;3.30;99.90;;;;;;5028997;28;20045;-71
2022/12/03 05:40:12;;;;;;;34.58;16.27;;;3.30;99.90;;;;;;5038155;28;20036;-70
2022/12/03 05:42:53;;;;;;;33.30;15.52;;;3.30;99.90;;;;;;5051264;28;20049;-72
2022/12/03 05:45:21;;;;;;;38.35;16.38;;;3.20;99.90;;;;;;5048807;28;20053;-70
2022/12/03 05:47:46;;;;;;;37.85;17.25;;;3.20;99.90;;;;;;5030620;28;20098;-70
2022/12/03 05:50:12;;;;;;;45.70;17.80;;;3.20;99.90;;;;;;5030511;28;20037;-71
2022/12/03 05:52:38;;;;;;;39.97;17.75;;;3.20;99.90;;;;;;5031608;28;20103;-72
2022/12/03 05:55:04;;;;;;;42.90;18.63;;;3.20;99.90;;;;;;5035665;28;20049;-71
2022/12/03 05:57:29;;;;;;;37.08;15.57;;;3.20;99.90;;;;;;5032199;28;20142;-71
2022/12/03 05:59:55;;;;;;;39.50;16.67;;;3.20;99.90;;;;;;5029241;28;20495;-70
2022/12/03 06:02:21;;;;;;;40.58;18.05;;;3.10;99.90;;;;;;5031941;28;20029;-70
2022/12/03 06:04:46;;;;;;;45.05;17.90;;;3.10;99.90;;;;;;5031326;28;20080;-70
2022/12/03 06:07:12;;;;;;;42.10;18.00;;;3.10;99.90;;;;;;5041342;28;20087;-70
2022/12/03 06:09:37;;;;;;;46.08;18.90;;;3.10;99.90;;;;;;5040101;28;20040;-72
2022/12/03 06:12:05;;;;;;;42.22;18.48;;;3.10;99.90;;;;;;5042552;28;20578;-71
2022/12/03 06:14:31;;;;;;;40.08;18.40;;;3.10;99.90;;;;;;5030507;28;20038;-70
2022/12/03 06:16:57;;;;;;;42.65;19.48;;;3.10;99.90;;;;;;5030950;28;20116;-70
2022/12/03 06:19:22;;;;;;;46.78;20.17;;;3.00;99.90;;;;;;5039624;28;20122;-70
2022/12/03 06:21:48;;;;;;;43.85;19.35;;;3.00;99.90;;;;;;5046284;28;20534;-71
2022/12/03 06:24:13;;;;;;;49.90;21.10;;;3.00;99.90;;;;;;5030219;28;20145;-70
2022/12/03 06:26:39;;;;;;;48.85;21.33;;;3.00;99.90;;;;;;5029784;28;20042;-71
2022/12/03 06:29:04;;;;;;;45.45;20.40;;;3.00;99.90;;;;;;5031384;28;20045;-71
2022/12/03 06:31:30;;;;;;;46.88;20.80;;;3.00;99.90;;;;;;5030238;28;20050;-69
2022/12/03 06:33:56;;;;;;;44.90;20.08;;;3.00;99.90;;;;;;5030504;28;20496;-72
2022/12/03 06:36:21;;;;;;;43.72;19.50;;;2.90;99.90;;;;;;5045572;28;20036;-71
2022/12/03 06:38:47;;;;;;;52.35;20.10;;;2.90;99.90;;;;;;5034777;28;20041;-70
2022/12/03 06:41:12;;;;;;;43.55;18.77;;;2.80;99.90;;;;;;5044013;28;20120;-67
2022/12/03 06:43:38;;;;;;;44.75;18.23;;;2.80;99.90;;;;;;5040574;28;20037;-66
2022/12/03 06:46:03;;;;;;;42.15;18.08;;;2.80;99.90;;;;;;5029730;28;20491;-67
2022/12/03 06:48:29;;;;;;;41.17;18.00;;;2.70;99.90;;;;;;5028483;28;20069;-67
2022/12/03 06:50:55;;;;;;;42.72;18.25;;;2.70;99.90;;;;;;5029327;28;20033;-67
2022/12/03 06:53:20;;;;;;;43.35;17.92;;;2.70;99.90;;;;;;5031746;28;20037;-67
2022/12/03 06:55:46;;;;;;;41.38;17.92;;;2.70;99.90;;;;;;5028481;28;20084;-66
2022/12/03 06:58:11;;;;;;;42.85;18.70;;;2.60;99.90;;;;;;5038985;28;20049;-66
2022/12/03 07:00:37;;;;;;;42.50;18.67;;;2.60;99.90;;;;;;5029923;28;20065;-66
2022/12/03 07:03:02;;;;;;;38.85;17.52;;;2.60;99.90;;;;;;5031128;28;20041;-67
2022/12/03 07:05:28;;;;;;;44.22;18.95;;;2.60;99.90;;;;;;5051420;28;20040;-70
2022/12/03 07:07:54;;;;;;;44.67;18.33;;;2.60;99.90;;;;;;5046940;28;20040;-69
2022/12/03 07:10:20;;;;;;;42.70;18.42;;;2.60;99.90;;;;;;5030560;28;20574;-69
2022/12/03 07:12:46;;;;;;;43.63;18.85;;;2.60;99.90;;;;;;5029611;28;20389;-68
2022/12/03 07:15:11;;;;;;;45.30;19.17;;;2.50;99.90;;;;;;5031458;28;20041;-69
2022/12/03 07:17:37;;;;;;;43.70;18.08;;;2.50;99.90;;;;;;5033584;28;20228;-69
2022/12/03 07:20:03;;;;;;;46.40;17.77;;;2.50;99.90;;;;;;5029075;28;24735;-70
2022/12/03 07:22:29;;;;;;;44.97;17.48;;;2.50;99.90;;;;;;5035647;28;20472;-68
2022/12/03 07:24:55;;;;;;;46.28;17.90;;;2.50;99.90;;;;;;5061360;22;20138;-69
2022/12/03 07:27:20;;;;;;;43.25;17.88;;;2.40;99.90;;;;;;5030758;28;20084;-69
2022/12/03 07:29:46;;;;;;;40.60;17.13;;;2.50;99.90;;;;;;5010554;28;20507;-70
2022/12/03 07:32:12;;;;;;;45.35;18.55;;;2.40;99.90;;;;;;5021141;28;20069;-68
2022/12/03 07:34:37;;;;;;;41.70;17.90;;;2.40;99.90;;;;;;5014132;28;20376;-74
2022/12/03 07:37:03;;;;;;;50.53;19.35;;;2.40;99.90;;;;;;5013248;28;20111;-73
2022/12/03 07:39:28;;;;;;;47.25;17.65;;;2.40;99.90;;;;;;5031123;28;20037;-72
2022/12/03 07:41:54;;;;;;;42.90;17.20;;;2.30;99.90;;;;;;5023289;28;20045;-73
2022/12/03 07:44:20;;;;;;;39.67;17.75;;;2.40;99.90;;;;;;5009395;28;20033;-74
2022/12/03 07:46:45;;;;;;;48.20;18.50;;;2.30;99.90;;;;;;5013151;28;20546;-73
2022/12/03 07:49:11;;;;;;;47.45;18.95;;;2.30;99.90;;;;;;5010477;28;20069;-72
2022/12/03 07:51:37;;;;;;;44.50;18.08;;;2.30;99.90;;;;;;5004895;28;20037;-71
2022/12/03 07:54:03;;;;;;;45.13;17.63;;;2.30;99.90;;;;;;5029707;28;20034;-71
2022/12/03 07:56:29;;;;;;;47.80;17.85;;;2.30;99.90;;;;;;5011970;28;20037;-72
2022/12/03 07:58:54;;;;;;;45.00;18.42;;;2.30;99.90;;;;;;5022285;28;20037;-72
2022/12/03 08:01:20;;;;;;;41.78;17.75;;;2.30;99.90;;;;;;5009677;28;20049;-72
2022/12/03 08:03:46;;;;;;;43.55;18.02;;;2.30;99.90;;;;;;5026416;28;20076;-71
2022/12/03 08:06:11;;;;;;;46.28;19.50;;;2.30;99.90;;;;;;5005995;28;20045;-70
2022/12/03 08:08:37;;;;;;;48.50;19.88;;;2.30;99.90;;;;;;5008479;28;20038;-68
2022/12/03 08:11:02;;;;;;;47.47;19.45;;;2.30;99.90;;;;;;5011540;28;20278;-71
2022/12/03 08:13:28;;;;;;;45.63;19.95;;;2.30;99.90;;;;;;5012020;28;20546;-71
2022/12/03 08:16:00;;;;;;;44.00;19.27;;;2.30;99.90;;;;;;5007859;28;20041;-73
2022/12/03 08:18:27;;;;;;;44.05;17.80;;;2.30;99.90;;;;;;5015126;28;20585;-75
2022/12/03 08:20:53;;;;;;;42.38;16.83;;;2.20;99.90;;;;;;5033648;28;20036;-72
2022/12/03 08:23:21;;;;;;;42.92;18.20;;;2.20;99.90;;;;;;5028238;28;20484;-70
2022/12/03 08:25:48;;;;;;;40.60;17.63;;;2.20;99.90;;;;;;5026171;28;20056;-72
2022/12/03 08:28:20;;;;;;;42.95;17.63;;;2.20;99.90;;;;;;5034530;28;20113;-70
2022/12/03 08:31:04;;;;;;;40.58;17.50;;;2.10;99.90;;;;;;5000078;28;20068;-72
2022/12/03 08:33:35;;;;;;;43.88;17.77;;;2.10;99.90;;;;;;4994494;28;20133;-72
2022/12/03 08:36:31;;;;;;;47.70;19.40;;;2.10;99.90;;;;;;5003440;28;20125;-70
2022/12/03 08:39:04;;;;;;;44.63;18.90;;;2.10;99.90;;;;;;5014970;28;20100;-72
2022/12/03 08:44:28;;;;;;;43.85;19.17;;;2.00;99.90;;;;;;5015817;28;20519;-72
2022/12/03 08:47:18;;;;;;;56.00;21.20;;;2.10;99.90;;;;;;5017688;28;20052;-69
2022/12/03 08:50:23;;;;;;;45.03;19.55;;;2.00;99.90;;;;;;5020814;28;20037;-71
2022/12/03 08:52:49;;;;;;;47.17;19.48;;;2.00;99.90;;;;;;5007182;28;20594;-71
2022/12/03 08:55:32;;;;;;;48.97;18.80;;;2.00;99.90;;;;;;5008875;28;20041;-70
2022/12/03 08:57:58;;;;;;;50.83;20.58;;;2.00;99.90;;;;;;5026036;28;20495;-67
2022/12/03 09:00:23;;;;;;;48.78;20.75;;;2.00;99.90;;;;;;5034405;28;20044;-67
2022/12/03 09:02:58;;;;;;;41.92;17.98;;;2.00;99.90;;;;;;5034004;28;20047;-68
2022/12/03 09:05:33;;;;;;;48.92;19.00;;;2.00;99.90;;;;;;5004454;28;20147;-68
2022/12/03 09:07:59;;;;;;;50.17;20.27;;;2.10;99.90;;;;;;5016928;28;20045;-67
2022/12/03 09:10:25;;;;;;;44.13;19.05;;;2.10;99.90;;;;;;5017956;28;20041;-70
2022/12/03 09:12:50;;;;;;;47.20;19.20;;;2.10;99.90;;;;;;5008570;28;20037;-70
2022/12/03 09:15:16;;;;;;;44.53;18.98;;;2.10;99.90;;;;;;5020882;28;20104;-70
2022/12/03 09:17:42;;;;;;;43.83;18.35;;;2.10;99.90;;;;;;5025402;28;20033;-70
2022/12/03 09:20:08;;;;;;;47.22;18.77;;;2.20;99.90;;;;;;5032463;28;20091;-70
2022/12/03 09:22:33;;;;;;;48.85;19.88;;;2.20;99.90;;;;;;5033240;28;20037;-70
2022/12/03 09:24:59;;;;;;;45.22;17.80;;;2.20;99.90;;;;;;5019719;28;20454;-69
2022/12/03 09:27:25;;;;;;;47.47;19.05;;;2.10;99.90;;;;;;5028743;28;20095;-70
2022/12/03 09:29:50;;;;;;;44.55;18.75;;;2.20;99.90;;;;;;5029399;28;20050;-69
2022/12/03 09:32:16;;;;;;;43.72;18.05;;;2.20;99.90;;;;;;5025192;28;20045;-69
2022/12/03 09:34:41;;;;;;;44.92;17.83;;;2.20;99.90;;;;;;5015093;28;20491;-68
2022/12/03 09:37:08;;;;;;;50.33;19.42;;;2.20;99.90;;;;;;5015083;28;20420;-68
2022/12/03 09:39:33;;;;;;;45.55;18.17;;;2.20;99.90;;;;;;5022930;28;20057;-69
2022/12/03 09:41:59;;;;;;;43.50;18.27;;;2.20;99.90;;;;;;5013176;28;20108;-69
2022/12/03 09:44:29;;;;;;;48.05;18.17;;;2.20;99.90;;;;;;5031946;28;20446;-69
2022/12/03 09:46:58;;;;;;;49.45;19.17;;;2.20;99.90;;;;;;5020651;28;20069;-70
2022/12/03 09:49:25;;;;;;;49.65;19.10;;;2.20;99.90;;;;;;5010555;28;20041;-69
2022/12/03 09:51:54;;;;;;;50.03;18.27;;;2.20;99.90;;;;;;5001285;28;20056;-71
2022/12/03 09:54:25;;;;;;;45.70;18.80;;;2.20;99.90;;;;;;5033281;28;20052;-69
2022/12/03 09:56:52;;;;;;;;;;;2.20;99.90;;;;;;5034053;28;20049;-70
2022/12/03 09:59:17;;;;;;;45.85;17.60;;;2.20;99.90;;;;;;5006698;28;19917;-70
2022/12/03 10:01:43;;;;;;;43.03;17.67;;;2.20;99.90;;;;;;5006895;28;20040;-70
2022/12/03 10:04:10;;;;;;;48.58;18.50;;;2.30;99.90;;;;;;5003657;28;20450;-70
2022/12/03 10:06:36;;;;;;;46.85;18.65;;;2.20;99.90;;;;;;5011736;28;20399;-70
2022/12/03 10:09:02;;;;;;;47.88;18.00;;;2.20;99.90;;;;;;4998143;28;20057;-70
2022/12/03 10:11:29;;;;;;;46.53;18.38;;;2.30;99.90;;;;;;5009475;28;20112;-70
2022/12/03 10:13:57;;;;;;;52.67;20.27;;;2.30;99.90;;;;;;5024866;28;20049;-65
2022/12/03 10:16:23;;;;;;;50.95;20.20;;;2.30;99.90;;;;;;5014331;28;20046;-69
2022/12/03 10:18:59;;;;;;;44.85;19.65;;;2.30;99.90;;;;;;5032155;28;20479;-70
2022/12/03 10:21:26;;;;;;;47.67;19.10;;;2.30;99.90;;;;;;4997682;28;20045;-70
2022/12/03 10:24:21;;;;;;;48.90;19.42;;;2.30;99.90;;;;;;5027691;28;20044;-70
2022/12/03 10:26:48;;;;;;;51.17;19.88;;;2.30;99.90;;;;;;4994700;28;20459;-70
2022/12/03 10:29:20;;;;;;;50.55;20.17;;;2.30;99.90;;;;;;5011816;28;20034;-70
2022/12/03 10:31:57;;;;;;;46.92;19.02;;;2.30;99.90;;;;;;5005566;28;20049;-69
2022/12/03 10:34:44;;;;;;;50.80;21.58;;;2.40;99.90;;;;;;5024097;28;20284;-70
2022/12/03 10:37:16;;;;;;;51.83;19.95;;;2.40;99.90;;;;;;5015091;28;20099;-70
2022/12/03 10:39:59;;;;;;;50.35;20.15;;;2.40;99.90;;;;;;5029925;28;20057;-70
2022/12/03 10:42:32;;;;;;;52.45;21.17;;;2.40;99.90;;;;;;5010714;28;20751;-69
2022/12/03 10:45:18;;;;;;;51.72;20.45;;;2.40;99.90;;;;;;5001658;28;20095;-67
2022/12/03 10:48:05;;;;;;;49.35;20.98;;;2.30;99.90;;;;;;4985513;28;20049;-70
2022/12/03 10:50:32;;;;;;;57.00;20.98;;;2.40;99.90;;;;;;4966176;28;20524;-69
2022/12/03 10:52:58;;;;;;;56.55;21.90;;;2.40;99.90;;;;;;4990903;28;20042;-67
2022/12/03 10:55:24;;;;;;;56.53;21.85;;;2.50;99.90;;;;;;5008307;28;20045;-71
2022/12/03 10:57:49;;;;;;;55.33;22.13;;;2.40;99.90;;;;;;5009626;28;20169;-71
2022/12/03 11:00:18;;;;;;;53.00;21.40;;;2.40;99.90;;;;;;5028492;28;20128;-71
2022/12/03 11:02:44;;;;;;;49.90;20.55;;;2.50;99.90;;;;;;5022836;28;20048;-69
2022/12/03 11:05:20;;;;;;;50.20;20.02;;;2.50;99.90;;;;;;5017137;28;20115;-70
2022/12/03 11:07:45;;;;;;;50.90;20.75;;;2.50;99.90;;;;;;5019326;28;20045;-69
2022/12/03 11:10:14;;;;;;;53.47;21.40;;;2.50;99.90;;;;;;5018654;28;20057;-69
2022/12/03 11:12:40;;;;;;;50.45;20.05;;;2.50;99.90;;;;;;5021960;28;20037;-70
2022/12/03 11:15:14;;;;;;;50.80;20.40;;;2.50;99.90;;;;;;5019392;28;20065;-69
2022/12/03 11:17:42;;;;;;;49.80;20.17;;;2.50;99.90;;;;;;5021734;28;20514;-70
2022/12/03 11:20:23;;;;;;;49.58;20.30;;;2.60;99.90;;;;;;4994686;28;20495;-69
2022/12/03 11:22:56;;;;;;;53.38;21.60;;;2.70;99.90;;;;;;4977457;28;20052;-69
2022/12/03 11:25:28;;;;;;;50.45;20.38;;;2.70;99.90;;;;;;4989362;28;20186;-68
2022/12/03 11:28:26;;;;;;;;;;;2.60;99.90;;;;;;4996290;28;20049;-68
2022/12/03 11:30:55;;;;;;;42.97;18.00;;;2.60;99.90;;;;;;4976187;28;19921;-68
2022/12/03 11:33:31;;;;;;;46.85;19.27;;;2.60;99.90;;;;;;5004947;28;20061;-69
2022/12/03 11:36:02;;;;;;;46.20;19.52;;;2.60;99.90;;;;;;4990587;28;20042;-68
2022/12/03 11:38:37;;;;;;;51.72;19.92;;;2.70;99.90;;;;;;5012697;28;20045;-68
2022/12/03 11:41:16;;;;;;;46.53;20.42;;;2.70;99.90;;;;;;5011657;28;20061;-71
2022/12/03 11:43:51;;;;;;;54.50;21.20;;;2.70;99.90;;;;;;5005777;28;20092;-69
2022/12/03 11:46:19;;;;;;;49.22;20.45;;;2.70;99.90;;;;;;4976729;28;20053;-71
2022/12/03 11:48:48;;;;;;;48.67;19.45;;;2.60;99.90;;;;;;4998703;28;20057;-69
2022/12/03 11:51:16;;;;;;;45.50;19.58;;;2.70;99.90;;;;;;5006111;28;20046;-69
2022/12/03 11:53:43;;;;;;;41.38;16.73;;;2.70;99.90;;;;;;5022897;28;20038;-69
2022/12/03 11:56:18;;;;;;;45.38;18.23;;;2.70;99.90;;;;;;5033559;28;20077;-70
2022/12/03 11:58:46;;;;;;;41.53;17.60;;;2.60;99.90;;;;;;5011362;28;20484;-69
2022/12/03 12:01:14;;;;;;;44.80;18.98;;;2.60;99.90;;;;;;5020189;28;20049;-69
2022/12/03 12:03:46;;;;;;;47.28;19.92;;;2.50;99.90;;;;;;5029354;28;20037;-69
2022/12/03 12:06:16;;;;;;;;;;;2.50;99.90;;;;;;5017170;28;20138;-70
2022/12/03 12:08:51;;;;;;;45.25;18.85;;;2.40;99.90;;;;;;5031203;28;20405;-69
2022/12/03 12:11:28;;;;;;;45.38;19.83;;;2.30;99.90;;;;;;5012083;28;20585;-70
2022/12/03 12:13:56;;;;;;;46.60;18.27;;;2.30;99.90;;;;;;5016913;28;20128;-68
2022/12/03 12:16:50;;;;;;;46.15;19.05;;;2.20;99.90;;;;;;5028197;28;20087;-70
2022/12/03 12:19:41;;;;;;;46.55;19.00;;;2.20;99.90;;;;;;5016600;28;20045;-68
2022/12/03 12:22:25;;;;;;;47.92;19.00;;;2.20;99.90;;;;;;5016242;28;20041;-68
2022/12/03 12:24:53;;;;;;;45.92;17.88;;;2.10;99.90;;;;;;5009188;28;20609;-67
2022/12/03 12:27:31;;;;;;;44.08;18.27;;;2.00;99.90;;;;;;5015291;28;20030;-68
2022/12/03 12:29:59;;;;;;;44.63;18.45;;;2.00;99.90;;;;;;5011874;28;20049;-69
2022/12/03 12:32:30;;;;;;;44.53;17.52;;;1.90;99.90;;;;;;5032660;28;20045;-65
2022/12/03 12:35:11;;;;;;;47.63;17.95;;;1.90;99.90;;;;;;5024181;28;20847;-65
2022/12/03 12:37:52;;;;;;;48.25;18.58;;;1.90;99.90;;;;;;5033146;28;20408;-66
2022/12/03 12:40:19;;;;;;;;;;;1.90;99.90;;;;;;5017085;28;20049;-67
2022/12/03 12:42:59;;;;;;;46.53;18.00;;;1.90;99.90;;;;;;5023727;28;19918;-64
2022/12/03 12:45:28;;;;;;;41.67;18.23;;;1.90;99.90;;;;;;5025817;28;20045;-69
2022/12/03 12:48:08;;;;;;;48.53;18.27;;;2.00;99.90;;;;;;5014925;28;20082;-68
2022/12/03 12:50:37;;;;;;;46.60;18.77;;;2.10;99.90;;;;;;5026934;28;20042;-67
2022/12/03 12:53:26;;;;;;;48.47;19.85;;;2.20;99.90;;;;;;5011704;28;20291;-68
2022/12/03 12:56:13;;;;;;;42.08;18.08;;;2.30;99.90;;;;;;5014355;28;20037;-68
2022/12/03 12:58:40;;;;;;;48.17;19.33;;;2.40;99.90;;;;;;5010831;28;20779;-71
2022/12/03 13:01:14;;;;;;;47.67;19.40;;;2.40;99.90;;;;;;5026092;28;20455;-68
2022/12/03 13:03:39;;;;;;;48.25;20.25;;;2.50;99.90;;;;;;5015517;28;20119;-69
2022/12/03 13:06:10;;;;;;;42.30;18.52;;;2.50;99.90;;;;;;5029459;28;21454;-67
2022/12/03 13:08:43;;;;;;;43.13;18.63;;;2.50;99.90;;;;;;5014923;28;20052;-69
2022/12/03 13:11:29;;;;;;;51.15;18.98;;;2.40;99.90;;;;;;5022931;28;20040;-68